Погода Фарасанна 2 недели

Асир, Саудовская Аравия

04 - 17 марта
  • 04марта
    Сегодня
    +26°
    +31°
    Ясно и безоблачно
    ВремяПогодаТемператураВлажностьДавлениеВетер, м/сВероятность осадков
    00:00Ясно и безоблачно+27°C84 %756 мм2.9 м/с2 %
    03:00Практически безоблачно+26°C90 %756 мм2.1 м/с2 %
    06:00Небольшая облачность+26°C91 %756 мм3.0 м/с2 %
    09:00Облачно с прояснениями+28°C79 %758 мм5.4 м/с3 %
    12:00Облачно с прояснениями+30°C69 %758 мм6.9 м/с8 %
    15:00Ясно и безоблачно+30°C65 %756 мм5.1 м/с7 %
    18:00Облачно с прояснениями+29°C69 %756 мм1.1 м/с3 %
    21:00Небольшая облачность+27°C69 %757 мм2.1 м/с2 %
  • 05марта
    Вторник
    +26°
    +31°
    Ясно и безоблачно
    ВремяПогодаТемператураВлажностьДавлениеВетер, м/сВероятность осадков
    00:00Ясно и безоблачно+27°C76 %757 мм2.4 м/с2 %
    03:00Ясно и безоблачно+27°C83 %756 мм2.4 м/с2 %
    06:00Ясно и безоблачно+27°C82 %757 мм0.3 м/с2 %
    09:00Ясно и безоблачно+28°C73 %758 мм3.3 м/с2 %
    12:00Ясно и безоблачно+30°C69 %757 мм5.6 м/с2 %
    15:00Ясно и безоблачно+31°C69 %756 мм5.8 м/с2 %
    18:00Ясно и безоблачно+29°C71 %756 мм3.0 м/с1 %
    21:00Ясно и безоблачно+27°C76 %756 мм1.9 м/с2 %
  • 06марта
    Среда
    +26°
    +32°
    Ясно и безоблачно
    ВремяПогодаТемператураВлажностьДавлениеВетер, м/сВероятность осадков
    00:00Ясно и безоблачно+27°C77 %757 мм2.2 м/с2 %
    03:00Ясно и безоблачно+27°C81 %756 мм2.9 м/с2 %
    06:00Ясно и безоблачно+27°C86 %756 мм2.2 м/с2 %
    09:00Ясно и безоблачно+29°C75 %758 мм1.6 м/с2 %
    12:00Практически безоблачно+30°C68 %757 мм6.0 м/с2 %
    15:00Ясно и безоблачно+31°C66 %755 мм4.9 м/с1 %
    18:00Ясно и безоблачно+29°C72 %755 мм3.3 м/с2 %
    21:00Ясно и безоблачно+28°C71 %756 мм0.5 м/с2 %
  • 07марта
    Четверг
    +26°
    +31°
    Ясно и безоблачно
    ВремяПогодаТемператураВлажностьДавлениеВетер, м/сВероятность осадков
    00:00Ясно и безоблачно+27°C76 %756 мм2.5 м/с2 %
    03:00Ясно и безоблачно+27°C80 %755 мм2.5 м/с2 %
    06:00Ясно и безоблачно+27°C89 %756 мм1.9 м/с2 %
    09:00Ясно и безоблачно+28°C77 %758 мм0.8 м/с8 %
    12:00Ясно и безоблачно+31°C67 %758 мм4.3 м/с14 %
    15:00Ясно и безоблачно+31°C67 %756 мм3.8 м/с5 %
    18:00Ясно и безоблачно+29°C68 %756 мм0.5 м/с3 %
    21:00Ясно и безоблачно+28°C70 %757 мм2.3 м/с2 %
  • 08марта
    Пятница
    +26°
    +31°
    Небольшая облачность и лёгкий дождик
    ВремяПогодаТемператураВлажностьДавлениеВетер, м/сВероятность осадков
    00:00Ясно и безоблачно+27°C78 %757 мм3.6 м/с2 %
    03:00Ясно и безоблачно+27°C82 %756 мм3.2 м/с2 %
    06:00Ясно и безоблачно+27°C84 %757 мм2.5 м/с6 %
    09:00Ясно и безоблачно+28°C76 %758 мм1.4 м/с17 %
    12:00Практически безоблачно+30°C69 %757 мм2.5 м/с21 %
    15:00Небольшая облачность и лёгкий дождик+30°C70 %756 мм3.9 м/с24 %
    18:00Ясно и безоблачно+29°C72 %756 мм4.7 м/с4 %
    21:00Ясно и безоблачно+27°C72 %758 мм5.6 м/с2 %
Мы используем cookies
Соглашаюсь